AirNav   ATP
 
 435 users online  

T78 Liberty Municipal Airport
Liberty, Texas, USA

GOING TO LIBERTY?


FAA INFORMATION EFFECTIVE 19 JULY 2018

Location

FAA Identifier: T78
Lat/Long: 30-04-40.1000N / 094-41-54.8000W
30-04.668333N / 094-41.913333W
30.0778056 / -94.6985556
(estimated)
Elevation: 69.5 ft. / 21.2 m (surveyed)
Variation: 05E (1995)
From city: 6 miles NE of LIBERTY, TX
Time zone: UTC -5 (UTC -6 during Standard Time)
Zip code: 77575

Airport Operations

Airport use: Open to the public
Activation date: 08/1959
Control tower: no
ARTCC: HOUSTON CENTER
FSS: MONTGOMERY COUNTY FLIGHT SERVICE STATION
FOR FP FILING CALL CXO FSS 1-800-992-7433.
NOTAMs facility: CXO (NOTAM-D service available)
Attendance: 0800-1800
Wind indicator: lighted
Segmented circle: yes
Lights: ACTVT MIRL RY 16/34 - CTAF.
Beacon: white-green (lighted land airport)
Operates sunset to sunrise.

Airport Communications

CTAF: 122.9
HOUSTON APPROACH: 119.7
HOUSTON DEPARTURE: 119.7
BORRN DP: 119.7
DREMR DP: 119.7
INDIE DP: 119.7
KARRR DP: 119.7
LURIC DP: 119.7
MMALT DP: 119.7
STRYA DP: 119.7
STYCK DP: 119.7
WATFO DP: 119.7
WYLSN DP: 119.7

Nearby radio navigation aids

VOR radial/distance  VOR name  Freq  Var
DASr197/7.3DAISETTA VORTAC116.9005E
MHFr358/32.0TRINITY VOR/DME113.6007E
IAHr073/34.4HUMBLE VORTAC116.6005E
BPTr276/36.3BEAUMONT VOR/DME114.5007E
HUBr045/39.3HOBBY VOR/DME117.1005E

 
NDB name  Hdg/Dist  Freq  Var  ID
GOODHUE264/25.336807EGDE --. -.. .
NIXIN074/27.332605EBVP -... ...- .--.
HARDIN COUNTY232/27.552404EHRD .... .-. -..

Airport Services

Fuel available: 100LL JET-A
24 HR SELF-SERVICE FUEL.
Parking: tiedowns
Airframe service: MAJOR
Powerplant service: MAJOR
Bottled oxygen: NONE
Bulk oxygen: NONE

Runway Information

Runway 16/34

Dimensions: 3801 x 75 ft. / 1159 x 23 m
Surface: asphalt, in fair condition
Weight bearing capacity: 
Single wheel: 10.0
Runway edge lights: medium intensity
RUNWAY 16  RUNWAY 34
Latitude: 30-04.971517N30-04.363658N
Longitude: 094-42.001210W094-41.824053W
Elevation: 68.9 ft.68.6 ft.
Traffic pattern: leftleft
Runway heading: 161 magnetic, 166 true341 magnetic, 346 true
Markings: nonprecision, in fair conditionnonprecision, in fair condition
Visual slope indicator: 2-light PAPI on left (3.00 degrees glide path)
Touchdown point: yes, no lightsyes, no lights
Obstructions: 51 ft. trees, 200 ft. from runway, 215 ft. right of centerline
+57 FT TREES 215 FT RT OF RY CENTERLINE FM THLD TO 200 FT.
67 ft. trees, 1248 ft. from runway, 15:1 slope to clear

Airport Ownership and Management from official FAA records

Ownership: Publicly-owned
Owner: CITY OF LIBERTY
1829 SAM HOUSTON
LIBERTY, TX 77575
Phone 936-587-4150
Manager: PHIL ROBERTSON
1829 SAM HOUSTON
LIBERTY, TX 77575
Phone (281) 660-2337

Airport Operational Statistics

Aircraft based on the field: 26
Single engine airplanes: 23
Multi engine airplanes: 1
Ultralights: 2
    
Aircraft operations: avg 120/week *
58% transient general aviation
41% local general aviation
<1% military
* for 12-month period ending 14 November 2016

Additional Remarks

FOR CD CTC HOUSTON APCH AT 281-443-5844 TO CNL IFR CALL 281-443-5888.

Instrument Procedures

NOTE: All procedures below are presented as PDF files. If you need a reader for these files, you should download the free Adobe Reader.

NOT FOR NAVIGATION. Please procure official charts for flight.
FAA instrument procedures published for use from 21 June 2018 at 0901Z to 19 July 2018 at 0900Z.

 
STARs - Standard Terminal Arrivals
HUDZY THREE **CHANGED**   2 pages: [1] [2] (328KB)
OHIIO FOUR   download (294KB)
RIICE EIGHT   2 pages: [1] [2] (548KB)
WHAEL THREE **CHANGED**   download (161KB)
 
IAPs - Instrument Approach Procedures
RNAV (GPS) RWY 16   download (139KB)
VOR-A   download (125KB)
 
Departure Procedures
BLTWY FIVE (RNAV) **NEW**   download (121KB)
BORRN THREE (RNAV)   2 pages: [1] [2] (246KB)
HOODO FIVE (RNAV)   2 pages: [1] [2] (204KB)
INDIE SIX (RNAV) **NEW**   download (148KB)
KARRR FOUR (RNAV)   2 pages: [1] [2] (195KB)
LURIC SIX (RNAV) **NEW**   download (167KB)
MMALT FOUR (RNAV) **NEW**   download (183KB)
STRYA SIX (RNAV) **NEW**   download (155KB)
STYCK SIX (RNAV) **NEW**   download (146KB)
WATFO FOUR (RNAV)   download (138KB)
WYLSN SIX (RNAV) **NEW**   download (133KB)
NOTE: Special Take-Off Minimums/Departure Procedures apply   download

Other nearby airports with instrument procedures:

T00 - Chambers County Airport (19 nm S)
54T - RWJ Airpark (20 nm S)
KHPY - Baytown Airport (22 nm SW)
6R3 - Cleveland Municipal Airport (23 nm NW)
KBMT - Beaumont Municipal Airport (25 nm E)
 
Loc | Ops | Rwys | IFR | FBO | Links
Com | Nav | Svcs | Stats | Notes


 
Area around T78 (Liberty Municipal Airport)
 
Road maps at: MapQuest Bing Google
 
Aerial photo
WARNING: Photo may not be current or correct
Aerial photo of T78 (Liberty Municipal Airport)
Photo by David Lawrence flying a 78 Bellanca/17-30A
Photo taken 08-Nov-2014
looking north.

Do you have a better or more recent aerial photo of Liberty Municipal Airport that you would like to share? If so, please send us your photo.

 
Sectional chart

 
Airport diagram
CAUTION: Diagram may not be current
Diagram of T78 (Liberty Municipal Airport)
 
Airport distance calculator
Flying to Liberty Municipal Airport? Find the distance to fly.

From to T78

Sunrise and sunset
Times for 19-Jul-2018
 Local
(UTC-5)
 Zulu
(UTC)
Morning civil twilight06:0411:04
Sunrise06:3111:31
Sunset20:1901:19
Evening civil twilight20:4601:46

Current date and time
Zulu (UTC)  19-Jul-2018 06:35:33
Local (UTC-5)  19-Jul-2018 01:35:33
 
METAR
K6R3 
23nm NW 
190615Z AUTO 21003KT 7SM CLR 26/23 A2994 RMK AO2 T02600230
KBMT 
25nm E 
190615Z AUTO 21005KT 10SM CLR 27/24 A2994 RMK AO2 T02700243
KIAH 
35nm W 
190553Z 21005KT 10SM FEW250 28/25 A2994 RMK AO2 SLP137 T02780250 10344 20278 403610261 51003
KBPT 
35nm E 
190553Z AUTO 23004KT 10SM CLR 27/24 A2994 RMK AO2 SLP136 T02670244 10311 20267 403440250 58004
KEFD 
38nm SW 
190550Z 19006KT 10SM FEW250 27/24 A2996
KHOU 
40nm SW 
190553Z 21005KT 9SM FEW250 27/26 A2993 RMK AO2 SLP140 T02670256 10344 20267 403560256 58004
KCXO 
41nm NW 
190553Z AUTO 19005KT 10SM CLR 28/25 A2994 RMK AO2 SLP134 T02780250 10339 20278 403500250 58001
KDWH 
44nm W 
190553Z AUTO 20007KT 10SM CLR 27/25 A2994 RMK AO2 SLP137 T02720250 10339 20272 403500256 50001
KLVJ 
44nm SW 
190553Z AUTO 20005KT 9SM CLR 26/25 A2995 RMK AO2 SLP140 T02610250 10333 20261 403500250 58008
TAF
KIAH 
35nm W 
190520Z 1906/2012 21010KT P6SM SCT015 SCT050
KBPT 
35nm E 
190520Z 1906/2006 22004KT P6SM BKN250 FM191500 25009KT P6SM SCT025 SCT250 FM200200 21004KT P6SM SKC
KEFD 
38nm SW 
182000Z 1820/2002 18012KT 9999 SCT060 QNH2993INS BECMG 1908/1909 22006KT 9999 BKN010 BKN060 QNH2994INS BECMG 1915/1916 20010G15KT 9999 SCT070 QNH2991INS TX36/1820Z TN24/1911Z
KHOU 
40nm SW 
190520Z 1906/2006 23010KT P6SM SCT015 SCT050
KCXO 
41nm NW 
190520Z 1906/2006 20007KT P6SM SKC FM191200 24010KT P6SM SCT008 BKN015 FM191400 22008KT P6SM SCT015
NOTAMs
Click for the latest NOTAMs
NOTAMs are issued by the DoD/FAA and will open in a separate window not controlled by AirNav.

 

 
 

FBO, Fuel Providers, and Aircraft Ground Support

  
 Business Name 
 
 Contact 
 
 Services / Description 
 
Fuel Prices
 
Comments
  
Liberty Municipal Airport 281-660-2337
936-336-3684
[web site]
Aviation fuel, Aircraft parking (ramp or tiedown), Restrooms
More info and photos of Liberty Municipal Airport
independent
100LL Jet A
SS $3.80 $2.80 
 Updated 10-May-2018
 
   4 read write
SS=Self service
Update Fuel Prices
 

Would you like to see your business listed on this page?

 If your business provides an interesting product or service to pilots, flight crews, aircraft, or users of the Liberty Municipal Airport, you should consider listing it here.  To start the listing process, click on the button below
 
Add a business
 

Other Pages about Liberty Municipal Airport

www.cityofliberty.org/...
 
Update a link
 
Copyright © AirNav, LLC. All rights reserved. Privacy Policy  Contact